sensor_id;sensor_type;location;lat;lon;timestamp;P1;durP1;ratioP1;P2;durP2;ratioP2
14754;SDS011;7469;50.906;6.952;2023-05-07T00:00:45;3.27;;;2.10;;
14754;SDS011;7469;50.906;6.952;2023-05-07T00:03:13;4.30;;;1.60;;
14754;SDS011;7469;50.906;6.952;2023-05-07T00:05:41;2.10;;;1.77;;
14754;SDS011;7469;50.906;6.952;2023-05-07T00:08:10;2.27;;;1.77;;
14754;SDS011;7469;50.906;6.952;2023-05-07T00:10:38;2.13;;;1.80;;
14754;SDS011;7469;50.906;6.952;2023-05-07T00:13:08;3.07;;;1.80;;
14754;SDS011;7469;50.906;6.952;2023-05-07T00:15:37;2.67;;;2.00;;
14754;SDS011;7469;50.906;6.952;2023-05-07T00:18:05;2.10;;;1.87;;
14754;SDS011;7469;50.906;6.952;2023-05-07T00:20:33;2.03;;;1.70;;
14754;SDS011;7469;50.906;6.952;2023-05-07T00:23:01;2.57;;;1.90;;
14754;SDS011;7469;50.906;6.952;2023-05-07T00:25:29;4.27;;;1.70;;
14754;SDS011;7469;50.906;6.952;2023-05-07T00:27:57;2.17;;;1.83;;
14754;SDS011;7469;50.906;6.952;2023-05-07T00:30:31;3.43;;;2.00;;
14754;SDS011;7469;50.906;6.952;2023-05-07T00:32:59;1.83;;;1.73;;
14754;SDS011;7469;50.906;6.952;2023-05-07T00:35:27;2.43;;;1.77;;
14754;SDS011;7469;50.906;6.952;2023-05-07T00:37:56;6.03;;;2.13;;
14754;SDS011;7469;50.906;6.952;2023-05-07T00:40:25;3.23;;;1.87;;
14754;SDS011;7469;50.906;6.952;2023-05-07T00:42:53;1.83;;;1.70;;
14754;SDS011;7469;50.906;6.952;2023-05-07T00:45:25;1.90;;;1.80;;
14754;SDS011;7469;50.906;6.952;2023-05-07T00:47:57;3.80;;;1.93;;
14754;SDS011;7469;50.906;6.952;2023-05-07T00:50:27;2.10;;;2.00;;
14754;SDS011;7469;50.906;6.952;2023-05-07T00:52:55;3.13;;;2.00;;
14754;SDS011;7469;50.906;6.952;2023-05-07T00:55:24;2.20;;;2.00;;
14754;SDS011;7469;50.906;6.952;2023-05-07T00:57:52;2.27;;;1.93;;
14754;SDS011;7469;50.906;6.952;2023-05-07T01:00:20;2.13;;;1.90;;
14754;SDS011;7469;50.906;6.952;2023-05-07T01:02:48;3.43;;;1.83;;
14754;SDS011;7469;50.906;6.952;2023-05-07T01:05:19;5.37;;;2.00;;
14754;SDS011;7469;50.906;6.952;2023-05-07T01:07:50;2.73;;;1.73;;
14754;SDS011;7469;50.906;6.952;2023-05-07T01:10:21;2.90;;;1.80;;
14754;SDS011;7469;50.906;6.952;2023-05-07T01:12:50;2.20;;;2.00;;
14754;SDS011;7469;50.906;6.952;2023-05-07T01:15:19;3.07;;;2.20;;
14754;SDS011;7469;50.906;6.952;2023-05-07T01:17:48;1.90;;;1.80;;
14754;SDS011;7469;50.906;6.952;2023-05-07T01:20:17;2.37;;;1.90;;
14754;SDS011;7469;50.906;6.952;2023-05-07T01:22:47;1.97;;;1.87;;
14754;SDS011;7469;50.906;6.952;2023-05-07T01:25:16;2.50;;;2.10;;
14754;SDS011;7469;50.906;6.952;2023-05-07T01:27:44;1.60;;;1.50;;
14754;SDS011;7469;50.906;6.952;2023-05-07T01:30:12;1.93;;;1.80;;
14754;SDS011;7469;50.906;6.952;2023-05-07T01:32:42;2.60;;;2.00;;
14754;SDS011;7469;50.906;6.952;2023-05-07T01:35:15;2.57;;;1.80;;
14754;SDS011;7469;50.906;6.952;2023-05-07T01:37:48;2.13;;;1.93;;
14754;SDS011;7469;50.906;6.952;2023-05-07T01:40:16;2.00;;;1.80;;
14754;SDS011;7469;50.906;6.952;2023-05-07T01:42:45;1.87;;;1.67;;
14754;SDS011;7469;50.906;6.952;2023-05-07T01:45:14;1.97;;;1.80;;
14754;SDS011;7469;50.906;6.952;2023-05-07T01:47:42;1.90;;;1.80;;
14754;SDS011;7469;50.906;6.952;2023-05-07T01:50:11;3.17;;;2.07;;
14754;SDS011;7469;50.906;6.952;2023-05-07T01:52:40;2.27;;;1.60;;
14754;SDS011;7469;50.906;6.952;2023-05-07T01:55:09;2.47;;;2.07;;
14754;SDS011;7469;50.906;6.952;2023-05-07T01:57:37;1.80;;;1.70;;
14754;SDS011;7469;50.906;6.952;2023-05-07T02:00:07;2.23;;;1.77;;
14754;SDS011;7469;50.906;6.952;2023-05-07T02:02:36;3.10;;;1.93;;
14754;SDS011;7469;50.906;6.952;2023-05-07T02:05:05;1.83;;;1.70;;
14754;SDS011;7469;50.906;6.952;2023-05-07T02:07:33;3.13;;;1.57;;
14754;SDS011;7469;50.906;6.952;2023-05-07T02:10:02;1.80;;;1.70;;
14754;SDS011;7469;50.906;6.952;2023-05-07T02:12:31;1.50;;;1.40;;
14754;SDS011;7469;50.906;6.952;2023-05-07T02:14:59;1.90;;;1.50;;
14754;SDS011;7469;50.906;6.952;2023-05-07T02:17:27;1.63;;;1.53;;
14754;SDS011;7469;50.906;6.952;2023-05-07T02:19:58;1.90;;;1.70;;
14754;SDS011;7469;50.906;6.952;2023-05-07T02:22:26;2.10;;;1.90;;
14754;SDS011;7469;50.906;6.952;2023-05-07T02:24:54;3.43;;;1.70;;
14754;SDS011;7469;50.906;6.952;2023-05-07T02:27:22;2.57;;;2.00;;
14754;SDS011;7469;50.906;6.952;2023-05-07T02:29:51;4.10;;;1.80;;
14754;SDS011;7469;50.906;6.952;2023-05-07T02:32:19;1.93;;;1.70;;
14754;SDS011;7469;50.906;6.952;2023-05-07T02:34:49;2.10;;;1.80;;
14754;SDS011;7469;50.906;6.952;2023-05-07T02:37:17;2.20;;;1.80;;
14754;SDS011;7469;50.906;6.952;2023-05-07T02:39:45;1.83;;;1.70;;
14754;SDS011;7469;50.906;6.952;2023-05-07T02:42:13;3.83;;;2.10;;
14754;SDS011;7469;50.906;6.952;2023-05-07T02:44:42;4.00;;;1.70;;
14754;SDS011;7469;50.906;6.952;2023-05-07T02:47:12;3.63;;;1.90;;
14754;SDS011;7469;50.906;6.952;2023-05-07T02:49:42;2.00;;;1.80;;
14754;SDS011;7469;50.906;6.952;2023-05-07T02:52:10;1.87;;;1.73;;
14754;SDS011;7469;50.906;6.952;2023-05-07T02:54:38;3.03;;;1.73;;
14754;SDS011;7469;50.906;6.952;2023-05-07T02:57:05;2.43;;;1.73;;
14754;SDS011;7469;50.906;6.952;2023-05-07T02:59:33;2.03;;;1.70;;
14754;SDS011;7469;50.906;6.952;2023-05-07T03:02:01;2.20;;;1.80;;
14754;SDS011;7469;50.906;6.952;2023-05-07T03:04:31;3.27;;;1.73;;
14754;SDS011;7469;50.906;6.952;2023-05-07T03:06:59;1.67;;;1.57;;
14754;SDS011;7469;50.906;6.952;2023-05-07T03:09:26;2.23;;;1.60;;
14754;SDS011;7469;50.906;6.952;2023-05-07T03:11:54;2.53;;;1.60;;
14754;SDS011;7469;50.906;6.952;2023-05-07T03:14:23;5.97;;;1.90;;
14754;SDS011;7469;50.906;6.952;2023-05-07T03:16:51;1.50;;;1.40;;
14754;SDS011;7469;50.906;6.952;2023-05-07T03:19:19;1.60;;;1.50;;
14754;SDS011;7469;50.906;6.952;2023-05-07T03:21:48;3.07;;;1.53;;
14754;SDS011;7469;50.906;6.952;2023-05-07T03:24:16;1.97;;;1.83;;
14754;SDS011;7469;50.906;6.952;2023-05-07T03:26:44;1.87;;;1.53;;
14754;SDS011;7469;50.906;6.952;2023-05-07T03:29:12;1.80;;;1.70;;
14754;SDS011;7469;50.906;6.952;2023-05-07T03:31:40;2.30;;;1.80;;
14754;SDS011;7469;50.906;6.952;2023-05-07T03:34:08;1.73;;;1.63;;
14754;SDS011;7469;50.906;6.952;2023-05-07T03:36:36;3.10;;;1.67;;
14754;SDS011;7469;50.906;6.952;2023-05-07T03:39:05;3.27;;;1.63;;
14754;SDS011;7469;50.906;6.952;2023-05-07T03:41:33;1.97;;;1.33;;
14754;SDS011;7469;50.906;6.952;2023-05-07T03:44:01;3.07;;;1.83;;
14754;SDS011;7469;50.906;6.952;2023-05-07T03:46:29;2.00;;;1.50;;
14754;SDS011;7469;50.906;6.952;2023-05-07T03:48:59;1.73;;;1.63;;
14754;SDS011;7469;50.906;6.952;2023-05-07T03:51:27;2.40;;;1.77;;
14754;SDS011;7469;50.906;6.952;2023-05-07T03:53:54;2.33;;;1.60;;
14754;SDS011;7469;50.906;6.952;2023-05-07T03:56:24;2.63;;;1.53;;
14754;SDS011;7469;50.906;6.952;2023-05-07T03:58:53;1.80;;;1.70;;
14754;SDS011;7469;50.906;6.952;2023-05-07T04:01:21;1.87;;;1.77;;
14754;SDS011;7469;50.906;6.952;2023-05-07T04:03:49;2.10;;;1.67;;
14754;SDS011;7469;50.906;6.952;2023-05-07T04:06:18;1.70;;;1.60;;
14754;SDS011;7469;50.906;6.952;2023-05-07T04:08:45;1.90;;;1.60;;
14754;SDS011;7469;50.906;6.952;2023-05-07T04:11:13;2.00;;;1.57;;
14754;SDS011;7469;50.906;6.952;2023-05-07T04:13:43;2.57;;;1.70;;
14754;SDS011;7469;50.906;6.952;2023-05-07T04:16:11;1.40;;;1.30;;
14754;SDS011;7469;50.906;6.952;2023-05-07T04:18:39;2.07;;;1.90;;
14754;SDS011;7469;50.906;6.952;2023-05-07T04:21:13;1.67;;;1.47;;
14754;SDS011;7469;50.906;6.952;2023-05-07T04:23:41;1.53;;;1.43;;
14754;SDS011;7469;50.906;6.952;2023-05-07T04:26:10;2.63;;;1.53;;
14754;SDS011;7469;50.906;6.952;2023-05-07T04:28:38;1.63;;;1.43;;
14754;SDS011;7469;50.906;6.952;2023-05-07T04:31:07;1.80;;;1.70;;
14754;SDS011;7469;50.906;6.952;2023-05-07T04:33:35;2.77;;;1.40;;
14754;SDS011;7469;50.906;6.952;2023-05-07T04:36:04;2.33;;;1.50;;
14754;SDS011;7469;50.906;6.952;2023-05-07T04:38:32;1.73;;;1.60;;
14754;SDS011;7469;50.906;6.952;2023-05-07T04:41:02;1.80;;;1.70;;
14754;SDS011;7469;50.906;6.952;2023-05-07T04:43:31;1.57;;;1.47;;
14754;SDS011;7469;50.906;6.952;2023-05-07T04:45:59;2.17;;;1.60;;
14754;SDS011;7469;50.906;6.952;2023-05-07T04:48:28;2.17;;;1.57;;
14754;SDS011;7469;50.906;6.952;2023-05-07T04:50:56;1.80;;;1.70;;
14754;SDS011;7469;50.906;6.952;2023-05-07T04:53:24;2.80;;;2.17;;
14754;SDS011;7469;50.906;6.952;2023-05-07T04:55:54;1.70;;;1.57;;
14754;SDS011;7469;50.906;6.952;2023-05-07T04:58:23;2.47;;;1.63;;
14754;SDS011;7469;50.906;6.952;2023-05-07T05:00:51;1.73;;;1.60;;
14754;SDS011;7469;50.906;6.952;2023-05-07T05:03:19;1.87;;;1.70;;
14754;SDS011;7469;50.906;6.952;2023-05-07T05:05:50;1.80;;;1.60;;
14754;SDS011;7469;50.906;6.952;2023-05-07T05:08:18;3.40;;;1.70;;
14754;SDS011;7469;50.906;6.952;2023-05-07T05:10:46;1.60;;;1.50;;
14754;SDS011;7469;50.906;6.952;2023-05-07T05:13:16;1.77;;;1.40;;
14754;SDS011;7469;50.906;6.952;2023-05-07T05:15:44;2.63;;;1.40;;
14754;SDS011;7469;50.906;6.952;2023-05-07T05:18:12;2.40;;;1.80;;
14754;SDS011;7469;50.906;6.952;2023-05-07T05:20:40;1.60;;;1.50;;
14754;SDS011;7469;50.906;6.952;2023-05-07T05:23:09;2.13;;;1.80;;
14754;SDS011;7469;50.906;6.952;2023-05-07T05:25:38;2.30;;;1.60;;
14754;SDS011;7469;50.906;6.952;2023-05-07T05:28:06;2.87;;;1.90;;
14754;SDS011;7469;50.906;6.952;2023-05-07T05:30:34;1.87;;;1.57;;
14754;SDS011;7469;50.906;6.952;2023-05-07T05:33:02;1.93;;;1.70;;
14754;SDS011;7469;50.906;6.952;2023-05-07T05:35:30;1.47;;;1.37;;
14754;SDS011;7469;50.906;6.952;2023-05-07T05:37:58;2.10;;;1.90;;
14754;SDS011;7469;50.906;6.952;2023-05-07T05:40:28;2.53;;;1.93;;
14754;SDS011;7469;50.906;6.952;2023-05-07T05:42:56;6.50;;;2.07;;
14754;SDS011;7469;50.906;6.952;2023-05-07T05:45:24;1.70;;;1.60;;
14754;SDS011;7469;50.906;6.952;2023-05-07T05:47:52;1.73;;;1.63;;
14754;SDS011;7469;50.906;6.952;2023-05-07T05:50:20;2.47;;;1.67;;
14754;SDS011;7469;50.906;6.952;2023-05-07T05:52:48;2.80;;;1.53;;
14754;SDS011;7469;50.906;6.952;2023-05-07T05:55:17;2.43;;;1.50;;
14754;SDS011;7469;50.906;6.952;2023-05-07T05:57:46;2.43;;;1.60;;
14754;SDS011;7469;50.906;6.952;2023-05-07T06:00:14;2.77;;;1.97;;
14754;SDS011;7469;50.906;6.952;2023-05-07T06:02:43;1.47;;;1.37;;
14754;SDS011;7469;50.906;6.952;2023-05-07T06:05:12;1.83;;;1.73;;
14754;SDS011;7469;50.906;6.952;2023-05-07T06:07:40;2.80;;;1.70;;
14754;SDS011;7469;50.906;6.952;2023-05-07T06:10:08;3.13;;;1.83;;
14754;SDS011;7469;50.906;6.952;2023-05-07T06:12:36;1.83;;;1.50;;
14754;SDS011;7469;50.906;6.952;2023-05-07T06:15:07;2.63;;;1.50;;
14754;SDS011;7469;50.906;6.952;2023-05-07T06:17:35;1.80;;;1.60;;
14754;SDS011;7469;50.906;6.952;2023-05-07T06:20:03;2.93;;;1.80;;
14754;SDS011;7469;50.906;6.952;2023-05-07T06:22:32;2.73;;;1.60;;
14754;SDS011;7469;50.906;6.952;2023-05-07T06:25:00;3.93;;;1.70;;
14754;SDS011;7469;50.906;6.952;2023-05-07T06:27:28;3.90;;;1.70;;
14754;SDS011;7469;50.906;6.952;2023-05-07T06:29:56;3.47;;;1.67;;
14754;SDS011;7469;50.906;6.952;2023-05-07T06:32:25;1.67;;;1.30;;
14754;SDS011;7469;50.906;6.952;2023-05-07T06:34:53;1.80;;;1.47;;
14754;SDS011;7469;50.906;6.952;2023-05-07T06:37:21;2.17;;;1.63;;
14754;SDS011;7469;50.906;6.952;2023-05-07T06:39:49;3.70;;;1.50;;
14754;SDS011;7469;50.906;6.952;2023-05-07T06:42:17;1.27;;;1.20;;
14754;SDS011;7469;50.906;6.952;2023-05-07T06:44:45;1.63;;;1.53;;
14754;SDS011;7469;50.906;6.952;2023-05-07T06:47:13;2.47;;;1.40;;
14754;SDS011;7469;50.906;6.952;2023-05-07T06:49:43;2.10;;;1.60;;
14754;SDS011;7469;50.906;6.952;2023-05-07T06:52:11;2.47;;;1.60;;
14754;SDS011;7469;50.906;6.952;2023-05-07T06:54:39;2.30;;;1.33;;
14754;SDS011;7469;50.906;6.952;2023-05-07T06:57:06;2.50;;;1.30;;
14754;SDS011;7469;50.906;6.952;2023-05-07T06:59:34;1.20;;;1.10;;
14754;SDS011;7469;50.906;6.952;2023-05-07T07:02:02;2.53;;;1.27;;
14754;SDS011;7469;50.906;6.952;2023-05-07T07:04:30;2.93;;;1.10;;
14754;SDS011;7469;50.906;6.952;2023-05-07T07:07:00;2.33;;;1.30;;
14754;SDS011;7469;50.906;6.952;2023-05-07T07:09:28;2.30;;;1.43;;
14754;SDS011;7469;50.906;6.952;2023-05-07T07:11:56;1.30;;;1.20;;
14754;SDS011;7469;50.906;6.952;2023-05-07T07:14:24;1.30;;;1.20;;
14754;SDS011;7469;50.906;6.952;2023-05-07T07:16:52;2.77;;;1.37;;
14754;SDS011;7469;50.906;6.952;2023-05-07T07:19:20;5.10;;;1.50;;
14754;SDS011;7469;50.906;6.952;2023-05-07T07:21:48;1.30;;;1.20;;
14754;SDS011;7469;50.906;6.952;2023-05-07T07:24:17;2.53;;;1.10;;
14754;SDS011;7469;50.906;6.952;2023-05-07T07:26:47;1.40;;;1.30;;
14754;SDS011;7469;50.906;6.952;2023-05-07T07:29:15;2.77;;;1.27;;
14754;SDS011;7469;50.906;6.952;2023-05-07T07:31:44;1.03;;;1.03;;
14754;SDS011;7469;50.906;6.952;2023-05-07T07:34:12;2.57;;;1.07;;
14754;SDS011;7469;50.906;6.952;2023-05-07T07:36:40;2.10;;;1.40;;
14754;SDS011;7469;50.906;6.952;2023-05-07T07:39:12;1.70;;;1.30;;
14754;SDS011;7469;50.906;6.952;2023-05-07T07:41:41;1.40;;;1.10;;
14754;SDS011;7469;50.906;6.952;2023-05-07T07:44:09;2.93;;;1.20;;
14754;SDS011;7469;50.906;6.952;2023-05-07T07:46:41;2.40;;;1.10;;
14754;SDS011;7469;50.906;6.952;2023-05-07T07:49:09;1.77;;;1.30;;
14754;SDS011;7469;50.906;6.952;2023-05-07T07:51:37;1.43;;;1.33;;
14754;SDS011;7469;50.906;6.952;2023-05-07T07:54:05;2.67;;;1.13;;
14754;SDS011;7469;50.906;6.952;2023-05-07T07:56:33;1.27;;;1.17;;
14754;SDS011;7469;50.906;6.952;2023-05-07T07:59:03;4.17;;;1.20;;
14754;SDS011;7469;50.906;6.952;2023-05-07T08:01:31;1.40;;;1.30;;
14754;SDS011;7469;50.906;6.952;2023-05-07T08:03:59;2.00;;;1.47;;
14754;SDS011;7469;50.906;6.952;2023-05-07T08:06:29;3.30;;;1.20;;
14754;SDS011;7469;50.906;6.952;2023-05-07T08:08:57;5.17;;;1.30;;
14754;SDS011;7469;50.906;6.952;2023-05-07T08:11:25;1.90;;;1.20;;
14754;SDS011;7469;50.906;6.952;2023-05-07T08:13:53;1.67;;;0.97;;
14754;SDS011;7469;50.906;6.952;2023-05-07T08:16:23;1.70;;;0.93;;
14754;SDS011;7469;50.906;6.952;2023-05-07T08:18:51;1.33;;;1.23;;
14754;SDS011;7469;50.906;6.952;2023-05-07T08:21:19;2.83;;;1.40;;
14754;SDS011;7469;50.906;6.952;2023-05-07T08:23:47;2.63;;;1.37;;
14754;SDS011;7469;50.906;6.952;2023-05-07T08:26:15;1.30;;;1.20;;
14754;SDS011;7469;50.906;6.952;2023-05-07T08:28:43;1.87;;;1.30;;
14754;SDS011;7469;50.906;6.952;2023-05-07T08:31:11;1.73;;;1.37;;
14754;SDS011;7469;50.906;6.952;2023-05-07T08:33:40;1.43;;;1.30;;
14754;SDS011;7469;50.906;6.952;2023-05-07T08:36:08;1.73;;;1.40;;
14754;SDS011;7469;50.906;6.952;2023-05-07T08:38:37;1.40;;;1.30;;
14754;SDS011;7469;50.906;6.952;2023-05-07T08:41:06;2.97;;;1.20;;
14754;SDS011;7469;50.906;6.952;2023-05-07T08:43:37;3.90;;;1.20;;
14754;SDS011;7469;50.906;6.952;2023-05-07T08:46:08;3.23;;;1.40;;
14754;SDS011;7469;50.906;6.952;2023-05-07T08:48:37;1.23;;;1.13;;
14754;SDS011;7469;50.906;6.952;2023-05-07T08:51:08;2.60;;;1.30;;
14754;SDS011;7469;50.906;6.952;2023-05-07T08:53:39;3.37;;;1.33;;
14754;SDS011;7469;50.906;6.952;2023-05-07T08:56:08;3.60;;;1.43;;
14754;SDS011;7469;50.906;6.952;2023-05-07T08:58:37;4.80;;;1.37;;
14754;SDS011;7469;50.906;6.952;2023-05-07T09:01:06;1.40;;;1.30;;
14754;SDS011;7469;50.906;6.952;2023-05-07T09:03:36;2.43;;;1.20;;
14754;SDS011;7469;50.906;6.952;2023-05-07T09:06:06;1.90;;;1.30;;
14754;SDS011;7469;50.906;6.952;2023-05-07T09:08:34;3.30;;;1.30;;
14754;SDS011;7469;50.906;6.952;2023-05-07T09:11:03;1.43;;;1.30;;
14754;SDS011;7469;50.906;6.952;2023-05-07T09:13:31;1.23;;;1.03;;
14754;SDS011;7469;50.906;6.952;2023-05-07T09:15:59;1.73;;;1.30;;
14754;SDS011;7469;50.906;6.952;2023-05-07T09:18:41;1.80;;;1.13;;
14754;SDS011;7469;50.906;6.952;2023-05-07T09:21:11;1.70;;;1.07;;
14754;SDS011;7469;50.906;6.952;2023-05-07T09:23:42;1.30;;;1.20;;
14754;SDS011;7469;50.906;6.952;2023-05-07T09:26:10;1.53;;;1.43;;
14754;SDS011;7469;50.906;6.952;2023-05-07T09:28:39;1.37;;;1.27;;
14754;SDS011;7469;50.906;6.952;2023-05-07T09:31:08;3.57;;;1.30;;
14754;SDS011;7469;50.906;6.952;2023-05-07T09:33:37;2.13;;;1.30;;
14754;SDS011;7469;50.906;6.952;2023-05-07T09:36:06;2.70;;;1.40;;
14754;SDS011;7469;50.906;6.952;2023-05-07T09:38:36;1.20;;;1.10;;
14754;SDS011;7469;50.906;6.952;2023-05-07T09:41:05;1.37;;;1.27;;
14754;SDS011;7469;50.906;6.952;2023-05-07T09:43:34;1.43;;;1.33;;
14754;SDS011;7469;50.906;6.952;2023-05-07T09:46:05;2.70;;;1.17;;
14754;SDS011;7469;50.906;6.952;2023-05-07T09:48:36;2.07;;;1.33;;
14754;SDS011;7469;50.906;6.952;2023-05-07T09:51:08;1.55;;;1.20;;
14754;SDS011;7469;50.906;6.952;2023-05-07T09:53:46;1.27;;;1.23;;
14754;SDS011;7469;50.906;6.952;2023-05-07T09:56:15;1.20;;;1.20;;
14754;SDS011;7469;50.906;6.952;2023-05-07T09:58:45;1.42;;;1.27;;
14754;SDS011;7469;50.906;6.952;2023-05-07T10:01:13;2.13;;;1.48;;
14754;SDS011;7469;50.906;6.952;2023-05-07T10:03:45;1.20;;;1.10;;
14754;SDS011;7469;50.906;6.952;2023-05-07T10:06:14;1.27;;;1.13;;
14754;SDS011;7469;50.906;6.952;2023-05-07T10:08:42;1.38;;;1.15;;
14754;SDS011;7469;50.906;6.952;2023-05-07T10:11:12;2.00;;;1.10;;
14754;SDS011;7469;50.906;6.952;2023-05-07T10:13:42;1.10;;;1.00;;
14754;SDS011;7469;50.906;6.952;2023-05-07T10:16:10;3.63;;;1.10;;
14754;SDS011;7469;50.906;6.952;2023-05-07T10:18:39;2.20;;;1.20;;
14754;SDS011;7469;50.906;6.952;2023-05-07T10:21:10;2.07;;;1.30;;
14754;SDS011;7469;50.906;6.952;2023-05-07T10:23:40;1.83;;;1.30;;
14754;SDS011;7469;50.906;6.952;2023-05-07T10:26:13;1.20;;;1.10;;
14754;SDS011;7469;50.906;6.952;2023-05-07T10:28:43;3.73;;;1.13;;
14754;SDS011;7469;50.906;6.952;2023-05-07T10:31:17;1.20;;;1.10;;
14754;SDS011;7469;50.906;6.952;2023-05-07T10:33:55;1.40;;;1.30;;
14754;SDS011;7469;50.906;6.952;2023-05-07T10:36:25;1.07;;;1.03;;
14754;SDS011;7469;50.906;6.952;2023-05-07T10:38:54;1.33;;;0.90;;
14754;SDS011;7469;50.906;6.952;2023-05-07T10:41:23;1.30;;;1.20;;
14754;SDS011;7469;50.906;6.952;2023-05-07T10:43:51;1.40;;;1.30;;
14754;SDS011;7469;50.906;6.952;2023-05-07T10:46:20;1.50;;;1.30;;
14754;SDS011;7469;50.906;6.952;2023-05-07T10:49:08;3.37;;;1.20;;
14754;SDS011;7469;50.906;6.952;2023-05-07T10:51:38;2.50;;;1.30;;
14754;SDS011;7469;50.906;6.952;2023-05-07T10:54:18;2.03;;;1.20;;
14754;SDS011;7469;50.906;6.952;2023-05-07T10:56:48;1.37;;;1.27;;
14754;SDS011;7469;50.906;6.952;2023-05-07T10:59:30;1.47;;;1.00;;
14754;SDS011;7469;50.906;6.952;2023-05-07T11:02:00;1.20;;;1.10;;
14754;SDS011;7469;50.906;6.952;2023-05-07T11:04:30;1.50;;;1.23;;
14754;SDS011;7469;50.906;6.952;2023-05-07T11:10:03;2.83;;;1.00;;
14754;SDS011;7469;50.906;6.952;2023-05-07T11:12:52;1.27;;;1.03;;
14754;SDS011;7469;50.906;6.952;2023-05-07T11:15:34;1.20;;;1.10;;
14754;SDS011;7469;50.906;6.952;2023-05-07T11:18:12;1.10;;;0.93;;
14754;SDS011;7469;50.906;6.952;2023-05-07T11:20:47;1.10;;;1.00;;
14754;SDS011;7469;50.906;6.952;2023-05-07T11:26:44;1.57;;;1.00;;
14754;SDS011;7469;50.906;6.952;2023-05-07T11:29:15;0.90;;;0.90;;
14754;SDS011;7469;50.906;6.952;2023-05-07T11:31:48;2.93;;;1.20;;
14754;SDS011;7469;50.906;6.952;2023-05-07T11:34:20;2.80;;;1.20;;
14754;SDS011;7469;50.906;6.952;2023-05-07T11:36:49;4.07;;;1.30;;
14754;SDS011;7469;50.906;6.952;2023-05-07T11:39:24;5.53;;;1.83;;
14754;SDS011;7469;50.906;6.952;2023-05-07T11:41:56;1.23;;;1.20;;
14754;SDS011;7469;50.906;6.952;2023-05-07T11:44:27;1.17;;;1.03;;
14754;SDS011;7469;50.906;6.952;2023-05-07T11:47:08;1.57;;;1.27;;
14754;SDS011;7469;50.906;6.952;2023-05-07T11:49:37;1.10;;;1.00;;
14754;SDS011;7469;50.906;6.952;2023-05-07T11:52:06;1.17;;;1.10;;
14754;SDS011;7469;50.906;6.952;2023-05-07T11:54:35;2.07;;;1.30;;
14754;SDS011;7469;50.906;6.952;2023-05-07T11:57:05;1.53;;;1.27;;
14754;SDS011;7469;50.906;6.952;2023-05-07T11:59:39;3.40;;;1.20;;
14754;SDS011;7469;50.906;6.952;2023-05-07T12:02:07;2.10;;;1.17;;
14754;SDS011;7469;50.906;6.952;2023-05-07T12:04:36;0.90;;;0.90;;
14754;SDS011;7469;50.906;6.952;2023-05-07T12:07:05;1.17;;;1.10;;
14754;SDS011;7469;50.906;6.952;2023-05-07T12:09:38;1.07;;;1.00;;
14754;SDS011;7469;50.906;6.952;2023-05-07T12:12:06;1.10;;;1.10;;
14754;SDS011;7469;50.906;6.952;2023-05-07T12:14:38;2.33;;;1.20;;
14754;SDS011;7469;50.906;6.952;2023-05-07T12:17:07;1.70;;;1.20;;
14754;SDS011;7469;50.906;6.952;2023-05-07T12:19:36;1.93;;;1.17;;
14754;SDS011;7469;50.906;6.952;2023-05-07T12:22:05;1.00;;;1.00;;
14754;SDS011;7469;50.906;6.952;2023-05-07T12:24:43;2.67;;;1.20;;
14754;SDS011;7469;50.906;6.952;2023-05-07T12:27:11;1.93;;;1.00;;
14754;SDS011;7469;50.906;6.952;2023-05-07T12:29:44;1.63;;;1.00;;
14754;SDS011;7469;50.906;6.952;2023-05-07T12:32:14;1.10;;;1.00;;
14754;SDS011;7469;50.906;6.952;2023-05-07T12:34:42;1.53;;;1.00;;
14754;SDS011;7469;50.906;6.952;2023-05-07T12:37:11;2.00;;;1.10;;
14754;SDS011;7469;50.906;6.952;2023-05-07T12:39:43;1.27;;;1.00;;
14754;SDS011;7469;50.906;6.952;2023-05-07T12:42:14;1.23;;;1.10;;
14754;SDS011;7469;50.906;6.952;2023-05-07T12:44:46;1.93;;;1.00;;
14754;SDS011;7469;50.906;6.952;2023-05-07T12:47:14;1.20;;;1.00;;
14754;SDS011;7469;50.906;6.952;2023-05-07T12:49:42;0.87;;;0.80;;
14754;SDS011;7469;50.906;6.952;2023-05-07T12:52:12;1.10;;;1.00;;
14754;SDS011;7469;50.906;6.952;2023-05-07T12:54:40;0.90;;;0.90;;
14754;SDS011;7469;50.906;6.952;2023-05-07T12:57:09;2.93;;;1.30;;
14754;SDS011;7469;50.906;6.952;2023-05-07T12:59:37;3.30;;;1.30;;
14754;SDS011;7469;50.906;6.952;2023-05-07T13:02:08;2.17;;;1.10;;
14754;SDS011;7469;50.906;6.952;2023-05-07T13:04:36;0.93;;;0.83;;
14754;SDS011;7469;50.906;6.952;2023-05-07T13:07:04;1.90;;;1.30;;
14754;SDS011;7469;50.906;6.952;2023-05-07T13:09:32;1.23;;;1.13;;
14754;SDS011;7469;50.906;6.952;2023-05-07T13:12:01;0.87;;;0.87;;
14754;SDS011;7469;50.906;6.952;2023-05-07T13:14:28;1.97;;;1.20;;
14754;SDS011;7469;50.906;6.952;2023-05-07T13:16:56;1.10;;;1.00;;
14754;SDS011;7469;50.906;6.952;2023-05-07T13:19:26;3.00;;;1.20;;
14754;SDS011;7469;50.906;6.952;2023-05-07T13:21:56;1.40;;;1.30;;
14754;SDS011;7469;50.906;6.952;2023-05-07T13:24:24;2.73;;;1.50;;
14754;SDS011;7469;50.906;6.952;2023-05-07T13:26:52;2.00;;;1.20;;
14754;SDS011;7469;50.906;6.952;2023-05-07T13:29:21;2.37;;;1.10;;
14754;SDS011;7469;50.906;6.952;2023-05-07T13:31:54;1.73;;;1.13;;
14754;SDS011;7469;50.906;6.952;2023-05-07T13:34:23;1.80;;;1.23;;
14754;SDS011;7469;50.906;6.952;2023-05-07T13:36:52;1.53;;;1.30;;
14754;SDS011;7469;50.906;6.952;2023-05-07T13:39:21;3.30;;;1.30;;
14754;SDS011;7469;50.906;6.952;2023-05-07T13:41:49;1.30;;;1.20;;
14754;SDS011;7469;50.906;6.952;2023-05-07T13:44:17;1.00;;;1.00;;
14754;SDS011;7469;50.906;6.952;2023-05-07T13:46:45;1.23;;;1.13;;
14754;SDS011;7469;50.906;6.952;2023-05-07T13:49:13;1.67;;;1.20;;
14754;SDS011;7469;50.906;6.952;2023-05-07T13:51:42;1.50;;;1.40;;
14754;SDS011;7469;50.906;6.952;2023-05-07T13:54:10;1.47;;;1.30;;
14754;SDS011;7469;50.906;6.952;2023-05-07T13:56:38;1.27;;;1.17;;
14754;SDS011;7469;50.906;6.952;2023-05-07T13:59:06;1.47;;;1.33;;
14754;SDS011;7469;50.906;6.952;2023-05-07T14:01:34;1.40;;;1.30;;
14754;SDS011;7469;50.906;6.952;2023-05-07T14:04:02;1.60;;;1.50;;
14754;SDS011;7469;50.906;6.952;2023-05-07T14:06:31;2.30;;;1.40;;
14754;SDS011;7469;50.906;6.952;2023-05-07T14:09:00;1.97;;;1.30;;
14754;SDS011;7469;50.906;6.952;2023-05-07T14:11:28;3.53;;;1.43;;
14754;SDS011;7469;50.906;6.952;2023-05-07T14:13:58;1.97;;;1.30;;
14754;SDS011;7469;50.906;6.952;2023-05-07T14:16:26;2.30;;;1.33;;
14754;SDS011;7469;50.906;6.952;2023-05-07T14:18:54;1.67;;;1.40;;
14754;SDS011;7469;50.906;6.952;2023-05-07T14:21:24;3.10;;;1.20;;
14754;SDS011;7469;50.906;6.952;2023-05-07T14:23:52;2.30;;;1.20;;
14754;SDS011;7469;50.906;6.952;2023-05-07T14:26:21;3.27;;;1.87;;
14754;SDS011;7469;50.906;6.952;2023-05-07T14:28:49;2.83;;;1.70;;
14754;SDS011;7469;50.906;6.952;2023-05-07T14:31:17;4.30;;;1.50;;
14754;SDS011;7469;50.906;6.952;2023-05-07T14:33:45;2.20;;;1.37;;
14754;SDS011;7469;50.906;6.952;2023-05-07T14:36:13;1.57;;;1.47;;
14754;SDS011;7469;50.906;6.952;2023-05-07T14:38:41;1.93;;;1.20;;
14754;SDS011;7469;50.906;6.952;2023-05-07T14:41:09;3.30;;;1.33;;
14754;SDS011;7469;50.906;6.952;2023-05-07T14:43:39;2.27;;;1.20;;
14754;SDS011;7469;50.906;6.952;2023-05-07T14:46:06;2.87;;;1.33;;
14754;SDS011;7469;50.906;6.952;2023-05-07T14:48:35;2.13;;;1.53;;
14754;SDS011;7469;50.906;6.952;2023-05-07T14:51:03;2.10;;;1.17;;
14754;SDS011;7469;50.906;6.952;2023-05-07T14:53:31;1.47;;;1.27;;
14754;SDS011;7469;50.906;6.952;2023-05-07T14:55:59;2.83;;;1.30;;
14754;SDS011;7469;50.906;6.952;2023-05-07T14:58:27;1.50;;;1.33;;
14754;SDS011;7469;50.906;6.952;2023-05-07T15:00:56;1.83;;;1.30;;
14754;SDS011;7469;50.906;6.952;2023-05-07T15:03:24;2.33;;;1.13;;
14754;SDS011;7469;50.906;6.952;2023-05-07T15:05:52;1.47;;;1.30;;
14754;SDS011;7469;50.906;6.952;2023-05-07T15:08:20;1.90;;;1.57;;
14754;SDS011;7469;50.906;6.952;2023-05-07T15:10:48;3.27;;;2.00;;
14754;SDS011;7469;50.906;6.952;2023-05-07T15:13:16;2.90;;;1.53;;
14754;SDS011;7469;50.906;6.952;2023-05-07T15:15:44;2.20;;;1.60;;
14754;SDS011;7469;50.906;6.952;2023-05-07T15:18:15;2.87;;;1.60;;